M I D A S
Marine Information and Data Acquisition System
Tripno 361 of the Zeeleeuw from 2002-11-20 07:24:24 to 2002-11-20 17:15:09
Back to CruiseResearch ActivitiesStationsMapUnderway DataData graphs

EquipmentUnitsComment
TimeDGPSUTC
LatitudeDGPSDM.mWGS84
LongitudeDGPSDM.mWGS84
HeadingGyrodeg 
SOGDGPSknotsSpeed over ground
COGDGPSdegCourse over ground
DepthEcho soundermeters200 kHz
Missing or incorrect values are displayed as -999
Navigation data collected by the RV Zeeleeuw from 2002-11-20 07:24:24 to 2002-11-20 17:15:09
Time Latitude Longitude Heading SOG COG Depth
2002-11-20 07:25:28 51°14.52 2°54.84 331.7 11.8 321.6 8.5
2002-11-20 07:26:28 51°14.682 2°54.648 332.2 12.3 322.9 8.3
2002-11-20 07:27:28 51°14.847 2°54.454 333.2 12.3 324.3 8.3
2002-11-20 07:28:28 51°15.017 2°54.282 334.5 12 326 7.3
2002-11-20 07:29:28 51°15.186 2°54.108 334.8 12.3 325.7 7.9
2002-11-20 07:30:28 51°15.357 2°53.925 335.2 12.4 325.6 8.5
2002-11-20 07:31:28 51°15.527 2°53.741 334.7 12.4 324.6 9.3
2002-11-20 07:32:28 51°15.697 2°53.556 335.2 12.6 325.4 10.1
2002-11-20 07:33:28 51°15.883 2°53.36 338.3 13.7 328.5 10.6
2002-11-20 07:34:28 51°16.08 2°53.168 339.2 13.9 329.1 11
2002-11-20 07:35:28 51°16.278 2°52.98 341.8 13.8 332 11.2
2002-11-20 07:36:28 51°16.483 2°52.822 343.7 13.7 334.9 10.8
2002-11-20 07:37:28 51°16.689 2°52.673 349.2 13.3 340.3 9.6
2002-11-20 07:38:28 51°16.895 2°52.57 349.8 12.9 341.2 8.6
2002-11-20 07:39:28 51°17.1 2°52.464 349.7 13 340.5 8.8
2002-11-20 07:40:28 51°17.307 2°52.356 350.7 13.2 341.7 9.2
2002-11-20 07:41:28 51°17.521 2°52.291 3.8 13 355.2 9.4
2002-11-20 07:42:28 51°17.736 2°52.279 6 12.8 357.3 9.3
2002-11-20 07:43:28 51°17.95 2°52.281 9.7 12.9 1.4 9.4
2002-11-20 07:44:28 51°18.159 2°52.33 29.2 12.7 22.3 9.7
2002-11-20 07:45:28 51°18.324 2°52.533 50.8 12.7 46.3 10
2002-11-20 07:46:28 51°18.449 2°52.801 62.7 12.6 58.5 10.1
2002-11-20 07:47:28 51°18.555 2°53.094 64.3 12.7 60.5 10.3
2002-11-20 07:48:28 51°18.661 2°53.384 63.5 12.6 59 10.4
2002-11-20 07:49:28 51°18.758 2°53.679 68 12.5 64.3 10.5
2002-11-20 07:50:28 51°18.851 2°53.976 68 12.5 63.6 10.5
2002-11-20 07:51:28 51°18.943 2°54.272 67.7 12.4 63.3 10.6
2002-11-20 07:52:28 51°19.035 2°54.567 67.7 12.4 63 10.6
2002-11-20 07:53:28 51°19.126 2°54.861 68 12.4 63.4 10.6
2002-11-20 07:54:28 51°19.218 2°55.155 67.7 12.4 63 10.6
2002-11-20 07:55:28 51°19.312 2°55.448 67.3 12.4 62.7 10.6
2002-11-20 07:56:28 51°19.405 2°55.743 67.8 12.4 63 10.5
2002-11-20 07:57:28 51°19.497 2°56.037 68.2 12.4 63.6 10.5
2002-11-20 07:58:28 51°19.591 2°56.329 67.7 12.4 63.5 10.4
2002-11-20 07:59:28 51°19.684 2°56.62 67.5 12.3 62.9 10.4
2002-11-20 08:00:28 51°19.777 2°56.912 67.5 12.4 62.8 10.4
2002-11-20 08:01:28 51°19.871 2°57.203 67.5 12.4 62.4 10.3
2002-11-20 08:02:28 51°19.964 2°57.498 68 12.4 63.3 10.2
2002-11-20 08:03:28 51°20.058 2°57.791 67.8 12.4 63.1 10.3
2002-11-20 08:04:28 51°20.153 2°58.084 67.5 12.4 62.8 10.2
2002-11-20 08:05:28 51°20.246 2°58.377 68.7 12.4 63.6 10.2
2002-11-20 08:06:28 51°20.34 2°58.667 67.5 12.3 62.3 10.2
2002-11-20 08:07:28 51°20.435 2°58.956 67.5 12.2 62.1 10.2
2002-11-20 08:08:28 51°20.526 2°59.245 70 12.2 64.7 10.2
2002-11-20 08:09:28 51°20.613 2°59.538 69.8 12.2 64.6 10.2
2002-11-20 08:10:28 51°20.701 2°59.833 70.2 12.3 64.9 10.1
2002-11-20 08:11:28 51°20.785 3°0.132 74 12.4 69 10
2002-11-20 08:12:28 51°20.853 3°0.444 74.7 12.5 70.3 10.1
2002-11-20 08:13:28 51°20.924 3°0.757 75.2 12.5 70.5 10.1
2002-11-20 08:14:28 51°20.994 3°1.072 75 12.6 70.6 10.1
2002-11-20 08:15:28 51°21.063 3°1.386 75 12.6 70.5 10.1
2002-11-20 08:16:28 51°21.134 3°1.702 74.5 12.6 70 10.1
2002-11-20 08:17:28 51°21.204 3°2.019 74.8 12.6 70.7 10.2
2002-11-20 08:18:28 51°21.274 3°2.333 74.5 12.6 70.3 10.3
2002-11-20 08:19:28 51°21.343 3°2.647 74.7 12.5 71 10.3
2002-11-20 08:20:28 51°21.411 3°2.963 75.2 12.6 71.1 10.3
2002-11-20 08:21:28 51°21.481 3°3.279 74.7 12.6 70.2 10.4
2002-11-20 08:22:28 51°21.55 3°3.594 74.7 12.6 70.3 10.4
2002-11-20 08:23:28 51°21.621 3°3.909 72.5 12.6 68.8 10.5
2002-11-20 08:24:28 51°21.741 3°4.183 58.5 12.6 52.7 10.6
2002-11-20 08:25:28 51°21.868 3°4.453 59 12.7 53.2 10.8
2002-11-20 08:26:28 51°21.949 3°4.761 79.8 12.7 76.9 10.9
2002-11-20 08:27:28 51°21.996 3°5.094 80.2 12.9 77.1 11.1
2002-11-20 08:28:28 51°22.045 3°5.425 78.8 12.8 76.1 11.1
2002-11-20 08:29:28 51°22.096 3°5.757 79 12.9 75.7 11.2
2002-11-20 08:30:28 51°22.148 3°6.09 79.5 12.8 75.5 11.2
2002-11-20 08:31:28 51°22.201 3°6.416 78.5 12.8 75.1 11.4
2002-11-20 08:32:28 51°22.254 3°6.745 79 12.7 76 11.5
2002-11-20 08:33:28 51°22.307 3°7.069 79 12.7 75.2 11.4
2002-11-20 08:34:28 51°22.365 3°7.394 75.8 12.6 72 11.5
2002-11-20 08:35:28 51°22.43 3°7.715 75.5 12.8 72 11.8
2002-11-20 08:36:28 51°22.494 3°8.039 75 12.8 72.1 11.8
2002-11-20 08:37:28 51°22.558 3°8.365 75.5 12.9 72.3 11.9
2002-11-20 08:38:28 51°22.622 3°8.693 76 13 73.2 12.1
2002-11-20 08:39:28 51°22.684 3°9.02 75.8 12.1 73.2 12.1
2002-11-20 08:40:28 51°22.693 3°9.219 98.7 5.2 99.1 12.5
2002-11-20 08:41:28 51°22.678 3°9.309 99 2.6 103.9 12.4
2002-11-20 08:42:28 51°22.675 3°9.354 83 1.2 88.1 12.5
2002-11-20 08:43:28 51°22.677 3°9.378 76.5 0.8 75.1 12.7
2002-11-20 08:44:28 51°22.681 3°9.391 70.7 0.5 43.6 12.7
2002-11-20 08:45:28 51°22.689 3°9.397 63.8 0.4 15.4 12.8
2002-11-20 08:46:28 51°22.699 3°9.408 71.2 1.1 56.4 12.8
2002-11-20 08:47:28 51°22.701 3°9.414 87.3 0.5 270.6 12.8
2002-11-20 08:48:28 51°22.693 3°9.431 116.7 0.7 159.1 12.8
2002-11-20 08:49:28 51°22.683 3°9.433 116.8 0.5 170 12.9
2002-11-20 08:50:28 51°22.674 3°9.436 108.5 0.5 163.1 12.7
2002-11-20 08:51:28 51°22.668 3°9.441 92.7 0.4 134.9 12.6
2002-11-20 08:52:28 51°22.666 3°9.449 82 0.4 79.7 12.6
2002-11-20 08:53:28 51°22.668 3°9.459 78.3 0.5 64.3 12.7
2002-11-20 08:54:28 51°22.671 3°9.471 73.2 0.6 55.3 12.6
2002-11-20 08:55:28 51°22.676 3°9.484 68.8 0.6 48.1 12.7
2002-11-20 08:56:28 51°22.694 3°9.528 49.7 4.1 42.9 12.9
2002-11-20 08:57:28 51°22.765 3°9.455 301.3 6.2 291.8 12.7
2002-11-20 08:58:28 51°22.751 3°9.308 236.3 5.4 234.5 12.7
2002-11-20 08:59:28 51°22.687 3°9.2 219.3 6.9 219.5 12.6
2002-11-20 09:00:28 51°22.597 3°9.128 187.5 4.8 193.7 12.6
2002-11-20 09:01:28 51°22.533 3°9.118 164.7 3.2 178.6 12.7
2002-11-20 09:02:28 51°22.489 3°9.121 158 2.3 176.6 12.6
2002-11-20 09:03:28 51°22.46 3°9.118 155 1.3 193.8 12.6
2002-11-20 09:04:28 51°22.458 3°9.091 162 1.8 303.7 12.7
2002-11-20 09:05:28 51°22.462 3°9.063 152.2 1.6 183.2 12.7
2002-11-20 09:06:28 51°22.442 3°9.109 79 2.5 80.1 12.6
2002-11-20 09:07:28 51°22.484 3°9.169 46.7 4.7 37.2 12.6
2002-11-20 09:08:28 51°22.554 3°9.258 45.7 5 37.9 12.8
2002-11-20 09:09:28 51°22.613 3°9.33 54 4.3 45.1 12.5
2002-11-20 09:10:28 51°22.671 3°9.373 21.3 3.8 7.5 12.8
2002-11-20 09:11:28 51°22.706 3°9.42 70.3 1.9 64.4 12.8
2002-11-20 09:12:28 51°22.705 3°9.414 86.8 0.7 259.5 12.9
2002-11-20 09:13:28 51°22.703 3°9.399 70.8 0.5 265.5 12.9
2002-11-20 09:14:28 51°22.705 3°9.391 59 0.3 321.2 12.9
2002-11-20 09:15:28 51°22.705 3°9.434 108.8 2 115.2 12.5
2002-11-20 09:16:28 51°22.691 3°9.46 118.8 1.1 139.2 12.9
2002-11-20 09:17:28 51°22.676 3°9.479 119 1.1 146.6 12.8
2002-11-20 09:18:28 51°22.659 3°9.494 127.3 1.2 154.3 12.9
2002-11-20 09:19:28 51°22.646 3°9.509 102.3 0.8 133.7 12.9
2002-11-20 09:20:28 51°22.644 3°9.522 67.8 0.5 62.5 12.9
2002-11-20 09:21:28 51°22.654 3°9.533 55 0.9 32.4 13
2002-11-20 09:22:28 51°22.667 3°9.55 55.7 1.1 39.1 12.8
2002-11-20 09:23:28 51°22.682 3°9.566 43 1.1 28.1 13.1
2002-11-20 09:24:28 51°22.698 3°9.568 25 1 354.8 13.2
2002-11-20 09:25:28 51°22.713 3°9.562 25 0.8 347 13.2
2002-11-20 09:26:28 51°22.724 3°9.556 26.5 0.7 339 13.2
2002-11-20 09:27:28 51°22.735 3°9.552 37 0.7 0.1 13.1
2002-11-20 09:28:28 51°22.746 3°9.56 52.3 0.8 33.8 13.3
2002-11-20 09:29:28 51°22.755 3°9.578 69.5 0.9 62.4 13.5
2002-11-20 09:30:28 51°22.758 3°9.603 85.7 1.1 87 13.5
2002-11-20 09:31:28 51°22.755 3°9.634 100.3 1.3 106.7 13.7
2002-11-20 09:32:28 51°22.744 3°9.668 116.5 1.5 124.1 13.8
2002-11-20 09:33:28 51°22.726 3°9.696 135.3 1.5 145.5 14
2002-11-20 09:34:28 51°22.699 3°9.709 163.8 2.1 174 14.1
2002-11-20 09:35:28 51°22.66 3°9.684 222.3 3.1 222.4 12.9
2002-11-20 09:36:28 51°22.654 3°9.579 307.3 5.8 296 13
2002-11-20 09:37:28 51°22.743 3°9.328 307.7 12.6 299.3 12.9
2002-11-20 09:38:28 51°22.85 3°9.024 308.8 13.6 300.4 12.9
2002-11-20 09:39:28 51°22.977 3°8.706 311.7 14.4 303.5 12.6
2002-11-20 09:40:28 51°23.063 3°8.346 290.7 14.6 283.8 12
2002-11-20 09:41:28 51°23.125 3°7.971 292.7 14.5 286.1 11.6
2002-11-20 09:42:28 51°23.191 3°7.603 293 14.4 286.2 11.7
2002-11-20 09:43:28 51°23.261 3°7.233 293.2 14.5 286.9 12
2002-11-20 09:44:28 51°23.323 3°6.909 292.5 10.3 286.1 12.2
2002-11-20 09:45:28 51°23.39 3°6.678 312 11.2 307.4 12.4
2002-11-20 09:46:28 51°23.553 3°6.462 337 13.4 331.6 13.5
2002-11-20 09:47:28 51°23.771 3°6.454 21.2 13.7 17.4 17.4
2002-11-20 09:48:28 51°23.972 3°6.629 48.2 13.7 42 18.6
2002-11-20 09:49:28 51°24.117 3°6.869 54.3 11 50.3 18.4
2002-11-20 09:50:28 51°24.204 3°6.985 32.5 5 29.7 15.7
2002-11-20 09:51:28 51°24.258 3°7.043 43.7 3.2 40.2 14.4
2002-11-20 09:52:28 51°24.293 3°7.09 28.8 2.5 27 13.7
2002-11-20 09:53:28 51°24.334 3°7.086 332.5 2.9 324.9 13
2002-11-20 09:54:28 51°24.348 3°7.021 285.2 2.3 270.9 12.9
2002-11-20 09:55:28 51°24.347 3°6.98 290.8 1.2 267.9 12.9
2002-11-20 09:56:28 51°24.344 3°6.948 275.7 1.2 255.2 12.9
2002-11-20 09:57:28 51°24.337 3°6.92 256.3 1.1 237.1 13
2002-11-20 09:58:28 51°24.324 3°6.896 235.8 1.3 223.6 13.3
2002-11-20 09:59:28 51°24.306 3°6.875 221.2 1.3 212.5 13.7
2002-11-20 10:00:28 51°24.288 3°6.857 209.5 1.4 208.6 14.1
2002-11-20 10:01:28 51°24.275 3°6.846 209.7 0.6 216.6 14.3
2002-11-20 10:02:28 51°24.271 3°6.841 219.3 0.2 270.9 14.4
2002-11-20 10:03:28 51°24.274 3°6.842 240.8 0.3 48.1 14.4
2002-11-20 10:04:28 51°24.275 3°6.855 259.8 0.5 83.2 14.3
2002-11-20 10:05:28 51°24.276 3°6.867 269 0.5 94.4 14.4
2002-11-20 10:06:28 51°24.274 3°6.879 275.3 0.5 107.9 14.4
2002-11-20 10:07:28 51°24.273 3°6.889 282.3 0.3 100.8 14.5
2002-11-20 10:08:28 51°24.271 3°6.898 287 0.4 111.3 14.5
2002-11-20 10:09:28 51°24.268 3°6.906 293.8 0.3 120 14.5
2002-11-20 10:10:28 51°24.265 3°6.913 293.2 0.3 106.7 14.7
2002-11-20 10:11:29 51°24.263 3°6.917 292.2   130 14.7
2002-11-20 10:12:29 51°24.263 3°6.914 280.5 0.2 249.3 14.8
2002-11-20 10:13:29 51°24.261 3°6.907 269.7 0.2 229.9 14.8
2002-11-20 10:14:29 51°24.256 3°6.899 261.5 0.7 240.8 14.8
2002-11-20 10:15:29 51°24.249 3°6.875 261 1.2 247.4 14.9
2002-11-20 10:16:29 51°24.244 3°6.841 270.3 1.3 259.4 15
2002-11-20 10:17:29 51°24.243 3°6.806 290 1.4 275.6 15
2002-11-20 10:18:29 51°24.253 3°6.773 317.8 1.5 308.5 14.7
2002-11-20 10:19:29 51°24.273 3°6.754 348 1.4 340.7 14.2
2002-11-20 10:20:29 51°24.295 3°6.76 18.8 1.4 24.2 13.9
2002-11-20 10:21:29 51°24.313 3°6.786 44.8 1.4 54.2 13.7
2002-11-20 10:22:29 51°24.323 3°6.822 65.5 1.6 69.4 13.5
2002-11-20 10:23:29 51°24.331 3°6.872 62.5 2.3 73.3 13.5
2002-11-20 10:24:29 51°24.386 3°6.932 20.3 6.2 21.3 12.9
2002-11-20 10:25:29 51°24.548 3°7.018 20.8 11.3 19.1 12
2002-11-20 10:26:29 51°24.751 3°7.124 19.8 13.1 17.3 11.4
2002-11-20 10:27:29 51°24.96 3°7.228 20.8 13.2 18.1 10.3
2002-11-20 10:28:29 51°25.165 3°7.337 20.5 13 18.3 9.3
2002-11-20 10:29:29 51°25.372 3°7.444 20.3 13.1 17.5 9.5
2002-11-20 10:30:29 51°25.58 3°7.557 20.7 13.2 17.9 9.8
2002-11-20 10:31:29 51°25.789 3°7.663 20.5 13 17.3 10
2002-11-20 10:32:29 51°25.997 3°7.768 20.3 13 17.3 10
2002-11-20 10:33:29 51°26.203 3°7.871 21 13 17.7 10.1
2002-11-20 10:34:29 51°26.409 3°7.977 21 13 17.7 10.7
2002-11-20 10:35:29 51°26.616 3°8.081 20.7 13.1 17.3 11.2
2002-11-20 10:36:29 51°26.825 3°8.185 20.7 13.1 17.1 12.4
2002-11-20 10:37:29 51°27.023 3°8.328 34.3 13.1 31.3 12.3
2002-11-20 10:38:29 51°27.21 3°8.509 32.3 13.2 29.1 12.7
2002-11-20 10:39:29 51°27.406 3°8.668 24 13.1 20.7 13.2
2002-11-20 10:40:29 51°27.596 3°8.838 39.8 13.2 36.7 13.4
2002-11-20 10:41:29 51°27.768 3°9.06 44.2 13.3 41.2 13.6
2002-11-20 10:42:29 51°27.933 3°9.253 33.3 10.1 32.7 14
2002-11-20 10:43:29 51°28.032 3°9.269 346 4.6 341 14
2002-11-20 10:44:29 51°28.08 3°9.212 330 3.1 318.3 14.6
2002-11-20 10:45:29 51°28.113 3°9.175 348.8 2 334.3 14.5
2002-11-20 10:46:29 51°28.14 3°9.162 0.2 1.6 348.1 14.4
2002-11-20 10:47:29 51°28.157 3°9.158 8.7 0.7 351.7 14.5
2002-11-20 10:48:29 51°28.163 3°9.159 26.5 0.2 17.1 14.6
2002-11-20 10:49:29 51°28.165 3°9.164 40.2 0.3 75.4 14.6
2002-11-20 10:50:29 51°28.164 3°9.168 49.3 0.2 137.9 14.6
2002-11-20 10:51:29 51°28.161 3°9.17 59.3 0.3 180.2 14.6
2002-11-20 10:52:29 51°28.152 3°9.154 49.7 1 227.1 14.6
2002-11-20 10:53:29 51°28.139 3°9.14 29.2 0.8 203.9 14.6
2002-11-20 10:54:29 51°28.13 3°9.133 17.5 0.5 210.5 14.8
2002-11-20 10:55:29 51°28.128 3°9.129 11.5 0.1 252.6 14.7
2002-11-20 10:56:29 51°28.131 3°9.129 14.7 0.3 21.2 14.9
2002-11-20 10:57:29 51°28.137 3°9.136 27.2 0.5 43.5 14.8
2002-11-20 10:58:29 51°28.142 3°9.147 34.7 0.5 59.6 14.8
2002-11-20 10:59:29 51°28.144 3°9.156 43 0.3 74.9 15
2002-11-20 11:00:29 51°28.151 3°9.174 33.2 1.8 41.5 14.8
2002-11-20 11:01:29 51°28.174 3°9.192 12.3 1.4 20.7 14.9
2002-11-20 11:02:29 51°28.193 3°9.204 17.2 0.9 26.2 15
2002-11-20 11:03:29 51°28.203 3°9.217 29.2 0.8 42.3 15.1
2002-11-20 11:04:29 51°28.205 3°9.225 40.2 0.4 178.8 15.1
2002-11-20 11:05:29 51°28.181 3°9.21 24.8 2.3 197.3 -999
2002-11-20 11:06:29 51°28.152 3°9.204 14.3 1.5 183.7 15
2002-11-20 11:07:29 51°28.133 3°9.205 6.5 1 172.3 14.9
2002-11-20 11:08:29 51°28.14 3°9.201 325.2 1.5 330.1 14.9
2002-11-20 11:09:29 51°28.15 3°9.174 291.7 0.7 290.3 15.3
2002-11-20 11:10:29 51°28.151 3°9.157 278.5 0.6 268.9 15.1
2002-11-20 11:11:29 51°28.15 3°9.143 270.3 0.5 255.7 15.1
2002-11-20 11:12:29 51°28.146 3°9.132 261.8 0.4 244.6 15.1
2002-11-20 11:13:29 51°28.143 3°9.121 257.5 0.5 239.9 15.2
2002-11-20 11:14:29 51°28.137 3°9.107 259.5 0.7 241.6 15.3
2002-11-20 11:15:29 51°28.133 3°9.08 281.5 1 271.9 15.3
2002-11-20 11:16:29 51°28.141 3°9.055 302.5 1.1 310.5 15.4
2002-11-20 11:17:29 51°28.159 3°9.035 322.8 1.4 332.1 15.4
2002-11-20 11:18:29 51°28.185 3°9.031 354.3 1.6 6.9 15.6
2002-11-20 11:19:29 51°28.212 3°9.049 22.3 1.8 31.9 15.6
2002-11-20 11:20:29 51°28.234 3°9.081 44.5 1.8 46.7 15.8
2002-11-20 11:21:29 51°28.251 3°9.12 60.3 1.8 59.2 15.8
2002-11-20 11:22:29 51°28.265 3°9.174 84.8 2.9 75.5 15.8
2002-11-20 11:23:29 51°28.251 3°9.261 141.2 3.6 123.2 15.6
2002-11-20 11:24:29 51°28.202 3°9.286 216.3 3 194.3 15.3
2002-11-20 11:25:29 51°28.187 3°9.219 283.7 3.2 278.4 15.5
2002-11-20 11:26:29 51°28.199 3°9.091 281 5.7 277.9 15.4
2002-11-20 11:27:29 51°28.215 3°8.926 281.5 6.4 277.6 15.8
2002-11-20 11:28:29 51°28.231 3°8.753 282.2 6.6 278.6 16.1
2002-11-20 11:29:29 51°28.248 3°8.58 281 6.5 278.9 15.8
2002-11-20 11:30:29 51°28.259 3°8.409 279.2 6.5 275 15.7
2002-11-20 11:31:29 51°28.269 3°8.238 279.8 6.4 275.3 14.8
2002-11-20 11:32:29 51°28.281 3°8.07 279.8 6.3 276.2 15.4
2002-11-20 11:33:29 51°28.295 3°7.902 279.7 6.4 277.1 16.1
2002-11-20 11:34:29 51°28.311 3°7.733 279.7 6.4 277.6 16.5
2002-11-20 11:35:29 51°28.325 3°7.564 279.3 6.4 277.3 16.8
2002-11-20 11:36:29 51°28.337 3°7.394 280 6.4 277.2 17.1
2002-11-20 11:37:29 51°28.351 3°7.226 280.5 6.4 277.9 17.3
2002-11-20 11:38:29 51°28.367 3°7.032 280.3 8.4 277.8 17.4
2002-11-20 11:39:29 51°28.387 3°6.798 280 9 277.6 17.5
2002-11-20 11:40:29 51°28.406 3°6.558 280.2 9.1 277.3 17.7
2002-11-20 11:41:29 51°28.427 3°6.317 280 9.2 277.8 18
2002-11-20 11:42:29 51°28.448 3°6.075 279.8 9.2 277.8 18.1
2002-11-20 11:43:29 51°28.47 3°5.833 280.5 9.2 278 17.3
2002-11-20 11:44:29 51°28.493 3°5.59 279.3 9.2 278.4 18.2
2002-11-20 11:45:29 51°28.516 3°5.347 279.3 9.3 278.6 18.9
2002-11-20 11:46:29 51°28.542 3°5.104 280 9.3 279.6 20.5
2002-11-20 11:47:29 51°28.569 3°4.861 280 9.3 280.6 21.9
2002-11-20 11:48:29 51°28.597 3°4.617 279.7 9.3 280.4 23
2002-11-20 11:49:29 51°28.622 3°4.41 278 6.8 280.9 23.9
2002-11-20 11:50:30 51°28.641 3°4.263 274.3 4.5 281.4 -999
2002-11-20 11:51:29 51°28.65 3°4.174 263.8 2.8 276 -999
2002-11-20 11:52:30 51°28.655 3°4.113 258.3 2 278.7 -999
2002-11-20 11:53:30 51°28.659 3°4.064 256 1.8 275.3 -999
2002-11-20 11:54:30 51°28.664 3°4.016 262.2 1.9 284.1 -999
2002-11-20 11:55:30 51°28.675 3°3.966 271.8 2.2 295.4 -999
2002-11-20 11:56:30 51°28.69 3°3.906 265.5 2.6 285.1 -999
2002-11-20 11:57:29 51°28.694 3°3.841 253.7 2.3 269.8 -999
2002-11-20 11:58:29 51°28.692 3°3.792 245.7 1.5 266.4 -999
2002-11-20 11:59:30 51°28.696 3°3.772 241.2 0.6 352.5 -999
2002-11-20 12:00:30 51°28.706 3°3.771 233.5 0.5 352 -999
2002-11-20 12:01:30 51°28.711 3°3.767 228.3 0.3 323.2 -999
2002-11-20 12:02:29 51°28.714 3°3.763 223 0.2 301.1 -999
2002-11-20 12:03:30 51°28.714 3°3.759 218.5 0.2 246.9 -999
2002-11-20 12:04:30 51°28.711 3°3.758 213 0.3 170.3 -999
2002-11-20 12:05:29 51°28.706 3°3.761 208.2 0.3 161.2 -999
2002-11-20 12:06:30 51°28.701 3°3.762 210.2 0.3 171 -999
2002-11-20 12:07:30 51°28.696 3°3.765 208.3 0.3 156.6 -999
2002-11-20 12:08:30 51°28.689 3°3.77 210.2 0.3 170.4 -999
2002-11-20 12:09:30 51°28.684 3°3.77 212.3 0.3 193.3 -999
2002-11-20 12:10:29 51°28.679 3°3.768 215 0.3 198 -999
2002-11-20 12:11:30 51°28.675 3°3.768 216.3 0.2 205.9 -999
2002-11-20 12:12:30 51°28.672 3°3.765 216.5 0.2 189.7 -999
2002-11-20 12:13:29 51°28.668 3°3.761 217.8 0.3 199.4 -999
2002-11-20 12:14:30 51°28.665 3°3.759 219.3 0.3 204.6 -999
2002-11-20 12:15:29 51°28.661 3°3.754 220.5 0.3 226.1 -999
2002-11-20 12:16:30 51°28.659 3°3.749 221.8 0.2 239.3 -999
2002-11-20 12:17:30 51°28.658 3°3.743 225.8 0.3 261.3 -999
2002-11-20 12:18:30 51°28.658 3°3.736 226.8 0.3 252.8 -999
2002-11-20 12:19:30 51°28.658 3°3.727 227.3 0.3 263.5 -999
2002-11-20 12:20:30 51°28.659 3°3.719 228.2 0.3 271.4 -999
2002-11-20 12:21:29 51°28.661 3°3.71 231.2 0.4 293.4 -999
2002-11-20 12:22:29 51°28.665 3°3.696 239.3 0.6 292.5 -999
2002-11-20 12:23:30 51°28.674 3°3.674 261.8 1.4 310.8 -999
2002-11-20 12:24:30 51°28.7 3°3.647 294.7 2.2 337.6 -999
2002-11-20 12:25:29 51°28.742 3°3.638 327.7 2.9 359.8 -999
2002-11-20 12:26:30 51°28.794 3°3.653 357.2 3.1 16.4 -999
2002-11-20 12:27:30 51°28.842 3°3.683 20 3 26.7 -999
2002-11-20 12:28:29 51°28.885 3°3.724 40.5 3.1 33 -999
2002-11-20 12:29:29 51°28.925 3°3.772 56.5 2.9 38.8 -999
2002-11-20 12:30:30 51°28.962 3°3.825 73 2.8 44.9 -999
2002-11-20 12:31:30 51°28.994 3°3.878 86.3 2.8 48.3 -999
2002-11-20 12:32:30 51°29.023 3°3.937 98.3 2.8 50.1 -999
2002-11-20 12:33:30 51°29.045 3°4.006 122.3 3.2 75.5 -999
2002-11-20 12:34:30 51°29.019 3°4.074 189.7 3.5 161.3 -999
2002-11-20 12:35:30 51°28.882 3°4.034 200.7 11.3 192.4 -999
2002-11-20 12:36:30 51°28.692 3°3.936 208.5 12.1 201.1 -999
2002-11-20 12:37:30 51°28.503 3°3.811 211 12.2 203.5 -999
2002-11-20 12:38:30 51°28.319 3°3.672 212.3 12.4 205.6 -999
2002-11-20 12:39:29 51°28.138 3°3.536 211.8 12.2 204.2 23.7
2002-11-20 12:40:29 51°27.957 3°3.399 210.8 12.2 204.4 22.7
2002-11-20 12:41:29 51°27.772 3°3.261 211.7 12.3 204.7 21.4
2002-11-20 12:42:29 51°27.587 3°3.119 211.8 12.5 206 19.3
2002-11-20 12:43:29 51°27.401 3°2.978 211.5 12.4 205.1 13.8
2002-11-20 12:44:29 51°27.217 3°2.843 211.3 12.5 204.4 14.7
2002-11-20 12:45:29 51°27.032 3°2.701 211.5 12.3 204.9 15.7
2002-11-20 12:46:29 51°26.846 3°2.558 212.3 12.5 206.1 15.5
2002-11-20 12:47:29 51°26.662 3°2.415 211.5 12.2 205.7 14.7
2002-11-20 12:48:29 51°26.477 3°2.275 212 12.2 205.7 14
2002-11-20 12:49:29 51°26.293 3°2.133 211.2 12.4 204.7 13.1
2002-11-20 12:50:29 51°26.107 3°1.994 211 12.3 205.2 12.6
2002-11-20 12:51:29 51°25.92 3°1.852 211.7 12.5 205.1 12.9
2002-11-20 12:52:29 51°25.733 3°1.71 212.3 12.6 205.7 13.7
2002-11-20 12:53:29 51°25.544 3°1.567 210.8 12.5 204.7 14.9
2002-11-20 12:54:29 51°25.357 3°1.422 212.3 12.4 206.4 15.5
2002-11-20 12:55:29 51°25.169 3°1.28 212.2 12.5 206.3 16
2002-11-20 12:56:29 51°24.98 3°1.133 212 12.6 205.8 17.4
2002-11-20 12:57:29 51°24.79 3°0.985 211.7 12.7 205.3 21
2002-11-20 12:58:29 51°24.589 3°0.874 199 12.7 192.1 20.7
2002-11-20 12:59:29 51°24.381 3°0.807 199.2 12.8 191.2 18.5
2002-11-20 13:00:29 51°24.175 3°0.748 199.2 12.6 190 19.3
2002-11-20 13:01:29 51°23.976 3°0.669 203.7 12.3 194.7 20.4
2002-11-20 13:02:29 51°23.785 3°0.577 207 12 198.5 20.5
2002-11-20 13:03:29 51°23.616 3°0.484 212 9.1 202.1 20.4
2002-11-20 13:04:29 51°23.509 3°0.372 227.5 7.4 220.4 20.4
2002-11-20 13:05:29 51°23.42 3°0.256 226.5 5.9 220.1 20.2
2002-11-20 13:06:29 51°23.366 3°0.165 231 4.1 227.3 20
2002-11-20 13:07:29 51°23.321 3°0.1 229.5 3.4 222.2 19.7
2002-11-20 13:08:29 51°23.285 3°0.036 232.7 3.1 227.6 19.7
2002-11-20 13:09:29 51°23.252 3°0.008 214 1.7 198.7 19.6
2002-11-20 13:10:29 51°23.242 3°0.016 207 0.6 102.1 19.5
2002-11-20 13:11:29 51°23.241 3°0.033 209 0.6 95.7 19.4
2002-11-20 13:12:29 51°23.244 3°0.047 214.8 0.5 78.4 19.4
2002-11-20 13:13:29 51°23.246 3°0.056 220.3 0.2 88 19.4
2002-11-20 13:14:29 51°23.243 3°0.057 225.7 0.2 199.9 19.3
2002-11-20 13:15:29 51°23.24 3°0.05 232 0.4 251.8 19.3
2002-11-20 13:16:29 51°23.238 3°0.035 238.2 0.7 261.2 19.4
2002-11-20 13:17:29 51°23.237 3°0.014 237.3 0.7 256.7 19.4
2002-11-20 13:18:29 51°23.232 3°0.001 227.3 0.5 221.2 19.4
2002-11-20 13:19:29 51°23.227 2°59.997 220.5 0.4 188.1 19.4
2002-11-20 13:20:29 51°23.218 3°0 212.2 0.6 157.6 19.3
2002-11-20 13:21:29 51°23.21 3°0.008 206.2 0.7 147.1 19.2
2002-11-20 13:22:29 51°23.205 3°0.023 202.7 0.7 99.4 19.2
2002-11-20 13:23:29 51°23.188 3°0.011 239 2.7 236.3 19
2002-11-20 13:24:29 51°23.198 2°59.957 265.8 1.6 310.6 19.3
2002-11-20 13:25:29 51°23.217 2°59.945 255.5 1 350.5 19.4
2002-11-20 13:26:29 51°23.233 2°59.944 249.2 1 358.8 19.5
2002-11-20 13:27:29 51°23.247 2°59.946 239 0.8 12.1 19.5
2002-11-20 13:28:29 51°23.259 2°59.953 231.8 0.8 22.7 19.7
2002-11-20 13:29:29 51°23.269 2°59.964 221.8 0.7 39.7 19.7
2002-11-20 13:30:29 51°23.275 2°59.978 212 0.6 58.5 19.6
2002-11-20 13:31:29 51°23.277 2°59.996 200.8 0.8 87.1 19.6
2002-11-20 13:32:29 51°23.276 3°0.02 191 1 97.4 19.5
2002-11-20 13:33:29 51°23.274 3°0.051 179.7 1.3 96.3 19.3
2002-11-20 13:34:29 51°23.272 3°0.09 169.2 1.5 96.2 19.3
2002-11-20 13:35:29 51°23.265 3°0.141 152.8 2.6 108.4 19.1
2002-11-20 13:36:29 51°23.259 3°0.203 150.5 2.3 97.2 18.8
2002-11-20 13:37:29 51°23.255 3°0.265 152.3 2.2 94.7 18.8
2002-11-20 13:38:29 51°23.251 3°0.318 160.8 1.9 96.8 18.8
2002-11-20 13:39:29 51°23.249 3°0.36 169.2 1.5 92.5 18.8
2002-11-20 13:40:29 51°23.238 3°0.382 215.3 0.5 172 18.7
2002-11-20 13:41:29 51°23.24 3°0.37 255.3 0.9 305.1 18.7
2002-11-20 13:42:29 51°23.255 3°0.344 265.5 1.4 312.2 18.7
2002-11-20 13:43:29 51°23.272 3°0.314 270.3 1.6 314.5 18.7
2002-11-20 13:44:29 51°23.293 3°0.284 270.8 1.7 315.1 18.8
2002-11-20 13:45:29 51°23.305 3°0.243 252.8 2.2 272.1 19.2
2002-11-20 13:46:29 51°23.281 3°0.139 245 6.8 247.4 19.1
2002-11-20 13:47:29 51°23.188 2°59.891 240.7 11.9 238.4 19
2002-11-20 13:48:29 51°23.1 2°59.714 217.5 6.5 213.2 18.9
2002-11-20 13:49:29 51°22.994 2°59.653 201.5 7.5 194.4 18.3
2002-11-20 13:50:29 51°22.862 2°59.572 215.7 9.2 211.2 17.8
2002-11-20 13:51:29 51°22.735 2°59.376 235.8 11.6 231.4 17.6
2002-11-20 13:52:29 51°22.64 2°59.084 251.2 12.6 249.8 17.7
2002-11-20 13:53:29 51°22.568 2°58.766 250 12.8 248.8 18
2002-11-20 13:54:29 51°22.494 2°58.451 250.2 12.7 249.6 18.5
2002-11-20 13:55:29 51°22.416 2°58.139 249.2 12.7 247.9 18.9
2002-11-20 13:56:29 51°22.336 2°57.829 249.8 12.6 248.4 19.2
2002-11-20 13:57:29 51°22.257 2°57.52 249.3 12.5 247.7 19.3
2002-11-20 13:58:29 51°22.176 2°57.212 248.7 12.5 247.1 19.5
2002-11-20 13:59:29 51°22.099 2°56.905 249.3 12.4 247.5 19.6
2002-11-20 14:00:29 51°22.019 2°56.598 249.2 12.6 248 19.5
2002-11-20 14:01:29 51°21.937 2°56.288 247.8 12.7 246.6 19.5
2002-11-20 14:02:29 51°21.853 2°55.976 248.8 12.8 247.3 19.4
2002-11-20 14:03:29 51°21.796 2°55.648 258.7 13 257.2 19.5
2002-11-20 14:04:29 51°21.753 2°55.309 258.8 13 258.4 19.4
2002-11-20 14:05:29 51°21.708 2°54.971 259.5 12.9 258.2 19.2
2002-11-20 14:06:29 51°21.661 2°54.637 259 12.9 257.8 19
2002-11-20 14:07:29 51°21.614 2°54.301 258.8 13 257.2 18.9
2002-11-20 14:08:29 51°21.563 2°53.966 256.2 12.9 254.1 18.6
2002-11-20 14:09:29 51°21.507 2°53.632 256 13 255.3 18.2
2002-11-20 14:10:29 51°21.452 2°53.297 256.7 13 255.5 17.4
2002-11-20 14:11:29 51°21.396 2°52.962 256.3 13.1 254.8 18.4
2002-11-20 14:12:29 51°21.337 2°52.629 252.7 13 252.7 18.2
2002-11-20 14:13:29 51°21.244 2°52.321 244.8 12.9 242 18.9
2002-11-20 14:14:29 51°21.146 2°52.018 245.3 12.9 243.6 19
2002-11-20 14:15:29 51°21.046 2°51.717 244.7 12.7 241.9 19.6
2002-11-20 14:16:29 51°20.95 2°51.413 245.3 12.9 243.2 20.1
2002-11-20 14:17:29 51°20.854 2°51.106 246 12.9 243.1 20.6
2002-11-20 14:18:29 51°20.759 2°50.803 246.8 12.9 244.3 21.4
2002-11-20 14:19:29 51°20.664 2°50.5 245.3 12.7 243.4 22
2002-11-20 14:20:29 51°20.569 2°50.198 246 12.7 244.2 22.6
2002-11-20 14:21:29 51°20.473 2°49.896 245.8 12.7 242.8 23.1
2002-11-20 14:22:29 51°20.378 2°49.595 245.5 12.7 243.5 23.6
2002-11-20 14:23:29 51°20.284 2°49.292 245.7 12.7 243.6 -999
2002-11-20 14:24:29 51°20.19 2°48.988 245 12.8 243.2 -999
2002-11-20 14:25:30 51°20.095 2°48.678 249.8 12.7 246.7 -999
2002-11-20 14:26:29 51°20.021 2°48.366 251.2 12.8 248.8 23.8
2002-11-20 14:27:29 51°19.944 2°48.047 251.2 12.8 249.4 23.7
2002-11-20 14:28:29 51°19.897 2°47.856 253.2 5.2 254.9 23.8
2002-11-20 14:29:30 51°19.898 2°47.763 263.8 2.6 281.6 23.8
2002-11-20 14:30:30 51°19.911 2°47.73 252.3 1.1 318.2 23.8
2002-11-20 14:31:29 51°19.923 2°47.717 242.8 0.8 328.8 23.7
2002-11-20 14:32:29 51°19.932 2°47.708 232.2 0.6 330.4 23.7
2002-11-20 14:33:29 51°19.94 2°47.702 225.2 0.5 332.1 23.6
2002-11-20 14:34:29 51°19.947 2°47.697 218.2 0.4 335.2 23.7
2002-11-20 14:35:29 51°19.953 2°47.695 215 0.4 342.3 23.6
2002-11-20 14:36:29 51°19.958 2°47.695 209.5 0.3 8.7 23.7
2002-11-20 14:37:29 51°19.962 2°47.696 204.3 0.2 196.6 23.6
2002-11-20 14:38:29 51°19.936 2°47.722 160.5 2.9 138.7 23.6
2002-11-20 14:39:29 51°19.913 2°47.767 163.2 1.4 113.6 23.6
2002-11-20 14:40:29 51°19.907 2°47.795 174.7 0.9 111.7 23.6
2002-11-20 14:41:29 51°19.903 2°47.81 189.8 0.5 112.3 23.7
2002-11-20 14:42:29 51°19.903 2°47.815 201.3 0.1 95.8 23.6
2002-11-20 14:43:29 51°19.905 2°47.817 203.7 0.1 6.8 23.6
2002-11-20 14:44:29 51°19.907 2°47.819 201.2 0.3 28.1 23.5
2002-11-20 14:45:29 51°19.911 2°47.823 200 0.3 40.5 23.5
2002-11-20 14:46:29 51°19.915 2°47.826 200.2 0.3 19.9 23.5
2002-11-20 14:47:29 51°19.921 2°47.829 200.3 0.4 13.5 23.6
2002-11-20 14:48:29 51°19.927 2°47.833 202.3 0.4 23 23.6
2002-11-20 14:49:29 51°19.924 2°47.83 208.3 1.3 208.2 23.6
2002-11-20 14:50:29 51°19.899 2°47.794 226.8 1.8 233.2 23.5
2002-11-20 14:51:29 51°19.898 2°47.779 219.3 0.5 284.9 23.5
2002-11-20 14:52:29 51°19.902 2°47.769 216.3 0.4 328.4 23.4
2002-11-20 14:53:29 51°19.909 2°47.766 214.3 0.4 351.1 23.5
2002-11-20 14:54:29 51°19.918 2°47.767 207.5 0.5 8.4 23.4
2002-11-20 14:55:29 51°19.925 2°47.767 215 0.4 343.1 23.4
2002-11-20 14:56:29 51°19.93 2°47.758 233.2 0.6 301 23.4
2002-11-20 14:57:29 51°19.938 2°47.73 266 1.8 297.7 23.2
2002-11-20 14:58:29 51°19.962 2°47.691 297 2.2 324.4 23.2
2002-11-20 14:59:29 51°20.001 2°47.665 328.2 2.7 345.1 23.2
2002-11-20 15:00:29 51°20.048 2°47.663 1.8 2.9 6.4 23.1
2002-11-20 15:01:29 51°20.092 2°47.683 30.7 2.6 21.2 23.1
2002-11-20 15:02:29 51°20.126 2°47.712 48.7 2.3 30 22.9
2002-11-20 15:03:29 51°20.158 2°47.744 57.5 2.2 34.1 22.8
2002-11-20 15:04:29 51°20.201 2°47.788 24.2 4.7 25.4 22.6
2002-11-20 15:05:29 51°20.271 2°47.734 280.8 4.9 293 22
2002-11-20 15:06:29 51°20.23 2°47.567 243.5 10.6 243.6 21.4
2002-11-20 15:07:29 51°20.137 2°47.264 244.2 13.2 243.8 20.9
2002-11-20 15:08:29 51°20.032 2°46.95 241.7 13.3 240.4 20.4
2002-11-20 15:09:29 51°19.922 2°46.643 240.3 13.3 239.5 16.8
2002-11-20 15:10:29 51°19.812 2°46.334 241.2 13.3 239.4 17.8
2002-11-20 15:11:29 51°19.703 2°46.023 241.5 13.4 241 15.9
2002-11-20 15:12:29 51°19.593 2°45.713 241.5 13.4 240.4 13.8
2002-11-20 15:13:29 51°19.484 2°45.402 241.8 13.3 240.1 12.3
2002-11-20 15:14:29 51°19.375 2°45.094 241 13.4 239.7 12.9
2002-11-20 15:15:29 51°19.268 2°44.783 241.5 13.4 240.3 18.2
2002-11-20 15:16:29 51°19.16 2°44.474 242.2 13.3 241.6 21.7
2002-11-20 15:17:29 51°19.062 2°44.157 245 13.3 244.5 22.5
2002-11-20 15:18:29 51°18.985 2°43.882 248 8.4 249.7 23.3
2002-11-20 15:19:29 51°18.942 2°43.784 217.2 2.9 223.6 23.6
2002-11-20 15:20:29 51°18.921 2°43.749 213.2 1.5 227.9 23.6
2002-11-20 15:21:29 51°18.908 2°43.738 196.7 0.3 227.7 23.6
2002-11-20 15:22:29 51°18.908 2°43.733 191.2 0.1 270.8 23.5
2002-11-20 15:23:29 51°18.911 2°43.733 182.2 0.3 12.5 23.6
2002-11-20 15:24:29 51°18.919 2°43.734 179.2 0.5 1.9 23.5
2002-11-20 15:25:29 51°18.927 2°43.736 172.3 0.4 20 23.5
2002-11-20 15:26:29 51°18.931 2°43.742 164.7 0.4 48.6 23.5
2002-11-20 15:27:29 51°18.934 2°43.751 162.3 0.4 73.2 23.5
2002-11-20 15:28:29 51°18.935 2°43.764 157.2 0.6 97.2 23.4
2002-11-20 15:29:29 51°18.934 2°43.782 153.7 0.7 93.4 23.4
2002-11-20 15:30:29 51°18.932 2°43.803 153 0.9 99.1 23.3
2002-11-20 15:31:29 51°18.929 2°43.826 154 1 104.3 23.2
2002-11-20 15:32:29 51°18.922 2°43.852 160.5 1.4 129.1 23.1
2002-11-20 15:33:29 51°18.908 2°43.868 179.2 0.8 153.9 23
2002-11-20 15:34:29 51°18.898 2°43.872 182.7 0.5 172.3 23.2
2002-11-20 15:35:29 51°18.891 2°43.874 182.2 0.4 177.1 23.1
2002-11-20 15:36:29 51°18.886 2°43.874 181.2 0.2 184 23.1
2002-11-20 15:37:29 51°18.883 2°43.874 180 0.1 164.9 23
2002-11-20 15:38:29 51°18.882 2°43.874 181   200.9 23
2002-11-20 15:39:29 51°18.882 2°43.872 181.5   318.2 23
2002-11-20 15:40:29 51°18.883 2°43.872 181.5 0.1 289.5 23
2002-11-20 15:41:29 51°18.884 2°43.869 183.3 0.1 272.3 22.9
2002-11-20 15:42:29 51°18.884 2°43.867 182.5 0.1 288.8 22.9
2002-11-20 15:43:29 51°18.884 2°43.866 181.5   279.4 23
2002-11-20 15:44:29 51°18.885 2°43.865 184 0.1 298.8 23
2002-11-20 15:45:29 51°18.886 2°43.86 187.8 0.2 299.3 23
2002-11-20 15:46:29 51°18.885 2°43.852 195.5 0.5 234.9 23
2002-11-20 15:47:29 51°18.873 2°43.836 213.2 1.2 227.2 23
2002-11-20 15:48:29 51°18.868 2°43.794 253 1.9 275.8 23
2002-11-20 15:49:29 51°18.88 2°43.744 276.7 2.1 297.9 23.1
2002-11-20 15:50:29 51°18.904 2°43.697 297.8 2.4 313.3 23.3
2002-11-20 15:51:29 51°18.938 2°43.659 322.2 2.6 332.1 23.3
2002-11-20 15:52:29 51°18.98 2°43.641 354 2.6 352.3 23.3
2002-11-20 15:53:29 51°19.02 2°43.644 23 2.3 8.9 23.3
2002-11-20 15:54:29 51°19.056 2°43.66 46.8 2.1 20.6 23.2
2002-11-20 15:55:29 51°19.086 2°43.68 61.8 1.9 25.1 23.3
2002-11-20 15:56:29 51°19.113 2°43.715 85.3 2.3 47 23.2
2002-11-20 15:57:29 51°19.12 2°43.784 137.7 3.1 113 23.1
2002-11-20 15:58:29 51°19.05 2°43.809 175.8 7.6 172.7 22.7
2002-11-20 15:59:29 51°18.889 2°43.948 153.5 12 147.3 22.4
2002-11-20 16:00:29 51°18.707 2°44.078 161.5 12.1 157.6 17.7
2002-11-20 16:01:29 51°18.527 2°44.211 158.8 11.8 155.1 12.6
2002-11-20 16:02:29 51°18.346 2°44.343 158.5 12 155 11.4
2002-11-20 16:03:29 51°18.164 2°44.477 159.8 12 156.1 16.7
2002-11-20 16:04:29 51°17.981 2°44.611 159.7 12.1 155.6 17.2
2002-11-20 16:05:29 51°17.799 2°44.745 159.8 12.1 155.3 18.2
2002-11-20 16:06:29 51°17.617 2°44.88 159.5 12 155.3 17.2
2002-11-20 16:07:29 51°17.435 2°45.011 159.7 12 155.7 16.6
2002-11-20 16:08:29 51°17.253 2°45.142 160.3 11.9 156 13.7
2002-11-20 16:09:29 51°17.072 2°45.274 159.5 12 154.8 12.6
2002-11-20 16:10:30 51°16.896 2°45.434 152 12 147.5 13.4
2002-11-20 16:11:29 51°16.73 2°45.6 153.5 11.9 148.9 12.3
2002-11-20 16:12:29 51°16.563 2°45.767 152.8 11.9 147.8 10.6
2002-11-20 16:13:29 51°16.395 2°45.933 152.5 11.8 147.9 10.1
2002-11-20 16:14:29 51°16.226 2°46.099 152.3 12.1 148.2 10.4
2002-11-20 16:15:29 51°16.069 2°46.298 143.8 12.2 139.8 12.1
2002-11-20 16:16:29 51°15.936 2°46.538 120.8 12.1 116.6 16
2002-11-20 16:17:29 51°15.898 2°46.853 100 12.3 94.1 16.8
2002-11-20 16:18:29 51°15.876 2°47.174 104.5 12.1 99.1 16.6
2002-11-20 16:19:29 51°15.841 2°47.491 106 12.2 101 15.7
2002-11-20 16:20:29 51°15.803 2°47.807 106.2 12.1 101 14.6
2002-11-20 16:21:29 51°15.764 2°48.123 106.3 12.1 101.5 12.9
2002-11-20 16:22:29 51°15.723 2°48.437 106.8 12 102 11.6
2002-11-20 16:23:29 51°15.683 2°48.75 106.8 12 102 10.7
2002-11-20 16:24:29 51°15.642 2°49.063 106.7 12.1 101.8 10.7
2002-11-20 16:25:29 51°15.6 2°49.38 106.7 12.2 101.7 12.3
2002-11-20 16:26:29 51°15.558 2°49.696 106.7 12.2 101.8 13.1
2002-11-20 16:27:29 51°15.515 2°50.011 106.7 12.1 102.5 13
2002-11-20 16:28:29 51°15.472 2°50.326 106.8 12.2 102.6 13
2002-11-20 16:29:29 51°15.429 2°50.642 106.8 12.2 102.4 12.9
2002-11-20 16:30:29 51°15.386 2°50.957 106.8 12.1 102.5 12.8
2002-11-20 16:31:29 51°15.342 2°51.269 106.7 12 102.6 12.5
2002-11-20 16:32:29 51°15.299 2°51.579 106.8 12 103 12.1
2002-11-20 16:33:29 51°15.222 2°51.856 122.3 10.5 119.7 11.8
2002-11-20 16:34:29 51°15.142 2°52.088 121.3 9.8 118.8 11.4
2002-11-20 16:35:29 51°15.064 2°52.314 121 9.7 118.5 11
2002-11-20 16:36:29 51°14.986 2°52.54 120.8 9.8 118.3 10.4
2002-11-20 16:37:29 51°14.908 2°52.767 120.7 9.7 118.2 10
2002-11-20 16:38:29 51°14.831 2°52.995 120.5 9.8 117.8 9.9
2002-11-20 16:39:29 51°14.764 2°53.196 121.8 6.9 118.1 9.5
2002-11-20 16:40:29 51°14.72 2°53.325 121.5 4.7 117.4 9.4
2002-11-20 16:41:29 51°14.689 2°53.421 121 3.7 117 9.6
2002-11-20 16:42:29 51°14.664 2°53.502 120.3 3.2 116.1 9.3
2002-11-20 16:43:29 51°14.642 2°53.569 121.2 2.6 117.2 8.8
2002-11-20 16:44:29 51°14.624 2°53.622 119.8 2.1 116.7 9.4
2002-11-20 16:45:29 51°14.609 2°53.668 115.3 1.8 112 9.5
2002-11-20 16:46:29 51°14.602 2°53.711 115 1.6 106.3 9.8
2002-11-20 16:47:29 51°14.589 2°53.74 131.7 1.2 133.6 9.8
2002-11-20 16:48:29 51°14.575 2°53.761 132.2 1.2 141.1 9.8
2002-11-20 16:49:29 51°14.56 2°53.782 131.8 1.2 140.6 10
2002-11-20 16:50:29 51°14.544 2°53.802 134 1.3 144 9.9
2002-11-20 16:51:29 51°14.527 2°53.822 132.3 1.3 142.4 9.8
2002-11-20 16:52:29 51°14.51 2°53.844 129.3 1.3 139.2 9.8
2002-11-20 16:53:29 51°14.489 2°53.885 121.5 2.9 122.8 9.8
2002-11-20 16:54:29 51°14.461 2°54.049 101 8.6 97.9 9.5
2002-11-20 16:55:29 51°14.454 2°54.303 94.3 10.2 91.1 9.7
2002-11-20 16:56:29 51°14.46 2°54.579 90.3 10.5 86.1 9.7
2002-11-20 16:57:29 51°14.431 2°54.852 113 10.6 111.1 10
2002-11-20 16:58:29 51°14.347 2°55.099 125.8 10.7 122.3 9.5
2002-11-20 16:59:29 51°14.258 2°55.267 137.8 6.8 133.8 9.5
2002-11-20 17:00:29 51°14.186 2°55.36 150 5 146 9.5
2002-11-20 17:01:29 51°14.115 2°55.419 156.8 4.8 153.7 9.6
2002-11-20 17:02:29 51°14.04 2°55.476 157.8 5 154.5 9.5
2002-11-20 17:03:29 51°13.962 2°55.536 157.7 5.4 153.5 9.8
2002-11-20 17:04:29 51°13.883 2°55.596 159.7 4.8 155.4 10.5
2002-11-20 17:05:29 51°13.817 2°55.648 160.8 4.2 155.3 10.4
2002-11-20 17:06:29 51°13.764 2°55.696 145.8 3.3 142.7 9.4
2002-11-20 17:07:29 51°13.733 2°55.752 134.2 2.7 126.9 10.2
2002-11-20 17:08:29 51°13.708 2°55.804 134 2.3 126.6 9.9
2002-11-20 17:09:29 51°13.687 2°55.851 131.5 2.1 125.5 9.1
2002-11-20 17:10:29 51°13.673 2°55.895 113.7 1.7 105.5 8.3
2002-11-20 17:11:29 51°13.67 2°55.933 108.8 0.9 88.7 6.6
2002-11-20 17:12:29 51°13.671 2°55.943 121.8 0.5 108.7 6.5
2002-11-20 17:13:29 51°13.667 2°55.95 128.7 0.2 140.4 6.5
2002-11-20 17:14:29 51°13.666 2°55.953 126.5 0.1 115.1 6.3